LIRS/GRS METAR and TAF weather

Enter ICAO airport designator
Station Type Date Time Source
LIRS METAR 2019/02/22 23:55 UTC NOAA

LIRS 222355Z 35005KT CAVOK 07/05 Q1025


Station Type Date Time Source
LIRS Decoded METAR 2019/02/22 23:55 UTC NOAA

Grosseto, Italy (LIRS) 42-45N 011-04E 7M
Feb 22, 2019 - 06:55 PM EST / 2019.02.22 2355 UTC
Wind: from the N (350 degrees) at 6 MPH (5 KT):0
Visibility: greater than 7 mile(s):0
Temperature: 44 F (7 C)
Dew Point: 41 F (5 C)
Relative Humidity: 87%
Pressure (altimeter): 30.27 in. Hg (1025 hPa)
ob: LIRS 222355Z 35005KT CAVOK 07/05 Q1025
cycle: 0

Station Type Date Time Source
LIRS TAF 2018/06/29 09:24 UTC NOAA

TAF TAF LIRS 290800Z 2909/2921 VRB03KT 9999 FEW030
BECMG 2911/2913 24015KT


Example: see airport list